sensor_id;sensor_type;location;lat;lon;timestamp;temperature;humidity
22676;DHT22;12521;43.310;21.876;2022-11-15T00:03:22;9.1;96.0
22676;DHT22;12521;43.310;21.876;2022-11-15T00:08:03;9.1;96.0
22676;DHT22;12521;43.310;21.876;2022-11-15T00:12:40;9.0;96.0
22676;DHT22;12521;43.310;21.876;2022-11-15T00:17:17;9.0;96.0
22676;DHT22;12521;43.310;21.876;2022-11-15T00:21:54;9.0;96.0
22676;DHT22;12521;43.310;21.876;2022-11-15T00:26:30;8.9;96.0
22676;DHT22;12521;43.310;21.876;2022-11-15T00:31:13;8.9;96.0
22676;DHT22;12521;43.310;21.876;2022-11-15T00:35:51;8.8;96.0
22676;DHT22;12521;43.310;21.876;2022-11-15T00:40:29;8.8;96.0
22676;DHT22;12521;43.310;21.876;2022-11-15T00:45:09;8.7;96.0
22676;DHT22;12521;43.310;21.876;2022-11-15T00:49:46;8.7;96.0
22676;DHT22;12521;43.310;21.876;2022-11-15T00:54:22;8.8;96.0
22676;DHT22;12521;43.310;21.876;2022-11-15T00:58:59;8.8;96.0
22676;DHT22;12521;43.310;21.876;2022-11-15T01:03:40;8.8;96.0
22676;DHT22;12521;43.310;21.876;2022-11-15T01:08:17;8.8;96.0
22676;DHT22;12521;43.310;21.876;2022-11-15T01:12:54;8.8;96.0
22676;DHT22;12521;43.310;21.876;2022-11-15T01:17:31;8.8;96.0
22676;DHT22;12521;43.310;21.876;2022-11-15T01:22:08;8.8;96.0
22676;DHT22;12521;43.310;21.876;2022-11-15T01:26:44;8.8;96.0
22676;DHT22;12521;43.310;21.876;2022-11-15T01:31:22;8.8;96.0
22676;DHT22;12521;43.310;21.876;2022-11-15T01:36:03;8.7;96.0
22676;DHT22;12521;43.310;21.876;2022-11-15T01:40:44;8.7;96.0
22676;DHT22;12521;43.310;21.876;2022-11-15T01:45:21;8.6;96.0
22676;DHT22;12521;43.310;21.876;2022-11-15T01:50:08;8.6;96.0
22676;DHT22;12521;43.310;21.876;2022-11-15T01:54:57;8.4;96.0
22676;DHT22;12521;43.310;21.876;2022-11-15T01:59:45;8.4;96.0
22676;DHT22;12521;43.310;21.876;2022-11-15T02:04:30;8.2;96.0
22676;DHT22;12521;43.310;21.876;2022-11-15T02:09:18;8.2;96.0
22676;DHT22;12521;43.310;21.876;2022-11-15T02:14:00;8.0;96.0
22676;DHT22;12521;43.310;21.876;2022-11-15T02:19:00;8.0;96.0
22676;DHT22;12521;43.310;21.876;2022-11-15T02:25:03;7.9;96.0
22676;DHT22;12521;43.310;21.876;2022-11-15T02:30:41;7.9;96.0
22676;DHT22;12521;43.310;21.876;2022-11-15T02:35:44;7.8;96.0
22676;DHT22;12521;43.310;21.876;2022-11-15T02:40:52;7.8;96.0
22676;DHT22;12521;43.310;21.876;2022-11-15T02:45:48;7.7;96.0
22676;DHT22;12521;43.310;21.876;2022-11-15T02:50:38;7.7;96.0
22676;DHT22;12521;43.310;21.876;2022-11-15T02:55:37;7.6;96.0
22676;DHT22;12521;43.310;21.876;2022-11-15T03:00:22;7.6;96.0
22676;DHT22;12521;43.310;21.876;2022-11-15T03:05:17;7.5;96.0
22676;DHT22;12521;43.310;21.876;2022-11-15T03:10:25;7.5;96.0
22676;DHT22;12521;43.310;21.876;2022-11-15T03:15:31;7.5;96.0
22676;DHT22;12521;43.310;21.876;2022-11-15T03:20:17;7.5;96.0
22676;DHT22;12521;43.310;21.876;2022-11-15T03:25:02;7.5;96.0
22676;DHT22;12521;43.310;21.876;2022-11-15T03:29:59;7.5;96.0
22676;DHT22;12521;43.310;21.876;2022-11-15T03:34:53;7.4;96.0
22676;DHT22;12521;43.310;21.876;2022-11-15T03:39:47;7.4;96.0
22676;DHT22;12521;43.310;21.876;2022-11-15T03:44:41;7.3;96.0
22676;DHT22;12521;43.310;21.876;2022-11-15T03:49:51;7.3;96.0
22676;DHT22;12521;43.310;21.876;2022-11-15T03:54:50;7.2;96.0
22676;DHT22;12521;43.310;21.876;2022-11-15T03:59:32;7.2;96.0
22676;DHT22;12521;43.310;21.876;2022-11-15T04:04:09;7.2;96.0
22676;DHT22;12521;43.310;21.876;2022-11-15T04:08:46;7.2;96.0
22676;DHT22;12521;43.310;21.876;2022-11-15T04:13:22;7.2;96.0
22676;DHT22;12521;43.310;21.876;2022-11-15T04:17:58;7.2;96.0
22676;DHT22;12521;43.310;21.876;2022-11-15T04:22:35;7.1;96.0
22676;DHT22;12521;43.310;21.876;2022-11-15T04:27:12;7.1;96.0
22676;DHT22;12521;43.310;21.876;2022-11-15T04:31:49;7.1;96.0
22676;DHT22;12521;43.310;21.876;2022-11-15T04:36:25;7.0;96.0
22676;DHT22;12521;43.310;21.876;2022-11-15T04:41:03;7.0;96.0
22676;DHT22;12521;43.310;21.876;2022-11-15T04:45:39;6.9;96.0
22676;DHT22;12521;43.310;21.876;2022-11-15T04:50:16;6.9;96.0
22676;DHT22;12521;43.310;21.876;2022-11-15T04:54:53;6.8;96.0
22676;DHT22;12521;43.310;21.876;2022-11-15T04:59:30;6.8;96.0
22676;DHT22;12521;43.310;21.876;2022-11-15T05:04:07;6.8;96.0
22676;DHT22;12521;43.310;21.876;2022-11-15T05:08:44;6.8;96.0
22676;DHT22;12521;43.310;21.876;2022-11-15T05:13:21;6.9;96.0
22676;DHT22;12521;43.310;21.876;2022-11-15T05:17:59;6.9;96.0
22676;DHT22;12521;43.310;21.876;2022-11-15T05:22:36;7.0;96.0
22676;DHT22;12521;43.310;21.876;2022-11-15T05:27:13;7.0;96.0
22676;DHT22;12521;43.310;21.876;2022-11-15T05:31:50;7.0;96.0
22676;DHT22;12521;43.310;21.876;2022-11-15T05:36:35;7.0;96.0
22676;DHT22;12521;43.310;21.876;2022-11-15T05:41:27;7.0;96.0
22676;DHT22;12521;43.310;21.876;2022-11-15T05:46:13;7.1;96.0
22676;DHT22;12521;43.310;21.876;2022-11-15T05:50:52;7.1;96.0
22676;DHT22;12521;43.310;21.876;2022-11-15T05:55:30;6.8;96.0
22676;DHT22;12521;43.310;21.876;2022-11-15T06:00:09;6.8;96.0
22676;DHT22;12521;43.310;21.876;2022-11-15T06:04:47;6.6;96.0
22676;DHT22;12521;43.310;21.876;2022-11-15T06:09:24;6.6;96.0
22676;DHT22;12521;43.310;21.876;2022-11-15T06:14:00;6.6;96.0
22676;DHT22;12521;43.310;21.876;2022-11-15T06:18:37;6.6;96.0
22676;DHT22;12521;43.310;21.876;2022-11-15T06:23:14;6.7;96.0
22676;DHT22;12521;43.310;21.876;2022-11-15T06:27:52;6.7;96.0
22676;DHT22;12521;43.310;21.876;2022-11-15T06:32:34;6.6;96.0
22676;DHT22;12521;43.310;21.876;2022-11-15T06:37:11;6.6;96.0
22676;DHT22;12521;43.310;21.876;2022-11-15T06:41:47;6.6;96.0
22676;DHT22;12521;43.310;21.876;2022-11-15T06:46:24;6.4;96.0
22676;DHT22;12521;43.310;21.876;2022-11-15T06:51:03;6.4;96.0
22676;DHT22;12521;43.310;21.876;2022-11-15T06:55:41;6.5;96.0
22676;DHT22;12521;43.310;21.876;2022-11-15T07:00:20;6.5;96.0
22676;DHT22;12521;43.310;21.876;2022-11-15T07:04:58;6.6;96.0
22676;DHT22;12521;43.310;21.876;2022-11-15T07:09:35;6.6;96.0
22676;DHT22;12521;43.310;21.876;2022-11-15T07:14:11;6.9;96.0
22676;DHT22;12521;43.310;21.876;2022-11-15T07:18:48;6.9;96.0
22676;DHT22;12521;43.310;21.876;2022-11-15T07:23:24;7.2;96.0
22676;DHT22;12521;43.310;21.876;2022-11-15T07:28:02;7.2;96.0
22676;DHT22;12521;43.310;21.876;2022-11-15T07:32:40;7.4;96.0
22676;DHT22;12521;43.310;21.876;2022-11-15T07:37:17;7.4;96.0
22676;DHT22;12521;43.310;21.876;2022-11-15T07:41:54;7.4;96.0
22676;DHT22;12521;43.310;21.876;2022-11-15T07:46:31;7.6;96.0
22676;DHT22;12521;43.310;21.876;2022-11-15T07:51:11;7.6;96.0
22676;DHT22;12521;43.310;21.876;2022-11-15T07:55:52;7.6;96.0
22676;DHT22;12521;43.310;21.876;2022-11-15T08:00:29;7.6;96.0
22676;DHT22;12521;43.310;21.876;2022-11-15T08:05:07;7.7;96.0
22676;DHT22;12521;43.310;21.876;2022-11-15T08:09:44;7.7;96.0
22676;DHT22;12521;43.310;21.876;2022-11-15T08:14:21;7.8;96.0
22676;DHT22;12521;43.310;21.876;2022-11-15T08:18:57;7.8;96.0
22676;DHT22;12521;43.310;21.876;2022-11-15T08:23:34;8.0;96.0
22676;DHT22;12521;43.310;21.876;2022-11-15T08:28:11;8.0;96.0
22676;DHT22;12521;43.310;21.876;2022-11-15T08:32:49;8.3;96.0
22676;DHT22;12521;43.310;21.876;2022-11-15T08:37:32;8.3;96.0
22676;DHT22;12521;43.310;21.876;2022-11-15T08:42:09;8.3;96.0
22676;DHT22;12521;43.310;21.876;2022-11-15T08:46:46;8.6;96.0
22676;DHT22;12521;43.310;21.876;2022-11-15T08:51:24;8.6;96.0
22676;DHT22;12521;43.310;21.876;2022-11-15T08:56:02;8.8;96.0
22676;DHT22;12521;43.310;21.876;2022-11-15T09:00:46;8.8;96.0
22676;DHT22;12521;43.310;21.876;2022-11-15T09:05:23;9.1;96.0
22676;DHT22;12521;43.310;21.876;2022-11-15T09:10:02;9.1;96.0
22676;DHT22;12521;43.310;21.876;2022-11-15T09:14:41;9.4;96.0
22676;DHT22;12521;43.310;21.876;2022-11-15T09:19:18;9.4;96.0
22676;DHT22;12521;43.310;21.876;2022-11-15T09:23:54;9.8;96.0
22676;DHT22;12521;43.310;21.876;2022-11-15T09:28:33;9.8;96.0
22676;DHT22;12521;43.310;21.876;2022-11-15T09:33:13;10.2;96.0
22676;DHT22;12521;43.310;21.876;2022-11-15T09:37:49;10.2;96.0
22676;DHT22;12521;43.310;21.876;2022-11-15T09:42:49;10.6;96.0
22676;DHT22;12521;43.310;21.876;2022-11-15T09:48:50;10.6;96.0
22676;DHT22;12521;43.310;21.876;2022-11-15T09:53:48;11.0;96.0
22676;DHT22;12521;43.310;21.876;2022-11-15T09:58:52;11.0;96.0
22676;DHT22;12521;43.310;21.876;2022-11-15T10:04:01;11.5;96.0
22676;DHT22;12521;43.310;21.876;2022-11-15T10:08:55;11.5;96.0
22676;DHT22;12521;43.310;21.876;2022-11-15T10:14:01;11.8;96.0
22676;DHT22;12521;43.310;21.876;2022-11-15T10:19:09;11.8;96.0
22676;DHT22;12521;43.310;21.876;2022-11-15T10:24:26;12.1;96.0
22676;DHT22;12521;43.310;21.876;2022-11-15T10:29:19;12.1;96.0
22676;DHT22;12521;43.310;21.876;2022-11-15T10:34:14;12.4;96.0
22676;DHT22;12521;43.310;21.876;2022-11-15T10:38:58;12.4;96.0
22676;DHT22;12521;43.310;21.876;2022-11-15T10:43:35;12.6;96.0
22676;DHT22;12521;43.310;21.876;2022-11-15T10:48:23;12.6;96.0
22676;DHT22;12521;43.310;21.876;2022-11-15T10:53:02;12.8;96.0
22676;DHT22;12521;43.310;21.876;2022-11-15T10:57:53;12.8;96.0
22676;DHT22;12521;43.310;21.876;2022-11-15T11:03:00;13.0;96.0
22676;DHT22;12521;43.310;21.876;2022-11-15T11:08:02;13.0;96.0
22676;DHT22;12521;43.310;21.876;2022-11-15T11:13:14;13.1;96.0
22676;DHT22;12521;43.310;21.876;2022-11-15T11:18:16;13.1;96.0
22676;DHT22;12521;43.310;21.876;2022-11-15T11:23:38;13.2;96.0
22676;DHT22;12521;43.310;21.876;2022-11-15T11:28:59;13.2;96.0
22676;DHT22;12521;43.310;21.876;2022-11-15T11:34:43;13.2;96.0
22676;DHT22;12521;43.310;21.876;2022-11-15T11:40:14;13.2;96.0
22676;DHT22;12521;43.310;21.876;2022-11-15T11:45:35;13.3;96.0
22676;DHT22;12521;43.310;21.876;2022-11-15T11:51:24;13.3;96.0
22676;DHT22;12521;43.310;21.876;2022-11-15T11:56:31;13.3;96.0
22676;DHT22;12521;43.310;21.876;2022-11-15T12:01:27;13.3;96.0
22676;DHT22;12521;43.310;21.876;2022-11-15T12:06:31;13.3;96.0
22676;DHT22;12521;43.310;21.876;2022-11-15T12:11:35;13.3;96.0
22676;DHT22;12521;43.310;21.876;2022-11-15T12:16:38;13.2;96.0
22676;DHT22;12521;43.310;21.876;2022-11-15T12:21:32;13.2;96.0
22676;DHT22;12521;43.310;21.876;2022-11-15T12:26:31;13.2;96.0
22676;DHT22;12521;43.310;21.876;2022-11-15T12:31:36;13.2;96.0
22676;DHT22;12521;43.310;21.876;2022-11-15T12:36:38;13.2;96.0
22676;DHT22;12521;43.310;21.876;2022-11-15T12:41:24;13.2;96.0
22676;DHT22;12521;43.310;21.876;2022-11-15T12:46:13;13.2;96.0
22676;DHT22;12521;43.310;21.876;2022-11-15T12:52:09;13.2;96.0
22676;DHT22;12521;43.310;21.876;2022-11-15T12:57:40;13.2;96.0
22676;DHT22;12521;43.310;21.876;2022-11-15T13:02:23;13.2;96.0
22676;DHT22;12521;43.310;21.876;2022-11-15T13:07:57;13.2;96.0
22676;DHT22;12521;43.310;21.876;2022-11-15T13:12:55;13.3;96.0
22676;DHT22;12521;43.310;21.876;2022-11-15T13:17:42;13.3;96.0
22676;DHT22;12521;43.310;21.876;2022-11-15T13:22:25;13.3;96.0
22676;DHT22;12521;43.310;21.876;2022-11-15T13:27:15;13.4;96.0
22676;DHT22;12521;43.310;21.876;2022-11-15T13:31:56;13.4;96.0
22676;DHT22;12521;43.310;21.876;2022-11-15T13:36:33;13.4;96.0
22676;DHT22;12521;43.310;21.876;2022-11-15T13:41:20;13.4;96.0
22676;DHT22;12521;43.310;21.876;2022-11-15T13:46:11;13.5;96.0
22676;DHT22;12521;43.310;21.876;2022-11-15T13:50:57;13.5;96.0
22676;DHT22;12521;43.310;21.876;2022-11-15T13:55:35;13.4;96.0
22676;DHT22;12521;43.310;21.876;2022-11-15T14:00:37;13.4;96.0
22676;DHT22;12521;43.310;21.876;2022-11-15T14:05:24;13.3;96.0
22676;DHT22;12521;43.310;21.876;2022-11-15T14:10:25;13.3;96.0
22676;DHT22;12521;43.310;21.876;2022-11-15T14:15:28;13.2;96.0
22676;DHT22;12521;43.310;21.876;2022-11-15T14:20:31;13.2;96.0
22676;DHT22;12521;43.310;21.876;2022-11-15T14:25:19;13.1;96.0
22676;DHT22;12521;43.310;21.876;2022-11-15T14:30:03;13.1;96.0
22676;DHT22;12521;43.310;21.876;2022-11-15T14:34:56;13.0;96.0
22676;DHT22;12521;43.310;21.876;2022-11-15T14:39:39;13.0;96.0
22676;DHT22;12521;43.310;21.876;2022-11-15T14:44:16;12.9;96.0
22676;DHT22;12521;43.310;21.876;2022-11-15T14:48:52;12.9;96.0
22676;DHT22;12521;43.310;21.876;2022-11-15T14:53:29;12.8;96.0
22676;DHT22;12521;43.310;21.876;2022-11-15T14:58:07;12.8;96.0
22676;DHT22;12521;43.310;21.876;2022-11-15T15:02:47;12.8;96.0
22676;DHT22;12521;43.310;21.876;2022-11-15T15:07:29;12.8;96.0
22676;DHT22;12521;43.310;21.876;2022-11-15T15:12:16;12.8;96.0
22676;DHT22;12521;43.310;21.876;2022-11-15T15:16:56;12.8;96.0
22676;DHT22;12521;43.310;21.876;2022-11-15T15:21:34;12.8;96.0
22676;DHT22;12521;43.310;21.876;2022-11-15T15:26:11;12.7;96.0
22676;DHT22;12521;43.310;21.876;2022-11-15T15:30:48;12.7;96.0
22676;DHT22;12521;43.310;21.876;2022-11-15T15:35:31;12.6;96.0
22676;DHT22;12521;43.310;21.876;2022-11-15T15:40:17;12.6;96.0
22676;DHT22;12521;43.310;21.876;2022-11-15T15:45:01;12.4;96.0
22676;DHT22;12521;43.310;21.876;2022-11-15T15:49:39;12.4;96.0
22676;DHT22;12521;43.310;21.876;2022-11-15T15:54:16;12.2;96.0
22676;DHT22;12521;43.310;21.876;2022-11-15T15:58:53;12.2;96.0
22676;DHT22;12521;43.310;21.876;2022-11-15T16:03:30;12.0;96.0
22676;DHT22;12521;43.310;21.876;2022-11-15T16:08:18;12.0;96.0
22676;DHT22;12521;43.310;21.876;2022-11-15T16:12:59;11.8;96.0
22676;DHT22;12521;43.310;21.876;2022-11-15T16:17:44;11.8;96.0
22676;DHT22;12521;43.310;21.876;2022-11-15T16:22:28;11.8;96.0
22676;DHT22;12521;43.310;21.876;2022-11-15T16:27:04;11.6;96.0
22676;DHT22;12521;43.310;21.876;2022-11-15T16:31:49;11.6;96.0
22676;DHT22;12521;43.310;21.876;2022-11-15T16:36:27;11.5;96.0
22676;DHT22;12521;43.310;21.876;2022-11-15T16:41:09;11.5;96.0
22676;DHT22;12521;43.310;21.876;2022-11-15T16:45:46;11.4;96.0
22676;DHT22;12521;43.310;21.876;2022-11-15T16:50:31;11.4;96.0
22676;DHT22;12521;43.310;21.876;2022-11-15T16:55:10;11.2;96.0
22676;DHT22;12521;43.310;21.876;2022-11-15T16:59:47;11.2;96.0
22676;DHT22;12521;43.310;21.876;2022-11-15T17:04:24;11.1;96.0
22676;DHT22;12521;43.310;21.876;2022-11-15T17:09:01;11.1;96.0
22676;DHT22;12521;43.310;21.876;2022-11-15T17:13:38;11.0;96.0
22676;DHT22;12521;43.310;21.876;2022-11-15T17:18:14;11.0;96.0
22676;DHT22;12521;43.310;21.876;2022-11-15T17:22:51;11.0;96.0
22676;DHT22;12521;43.310;21.876;2022-11-15T17:27:28;10.8;96.0
22676;DHT22;12521;43.310;21.876;2022-11-15T17:32:07;10.8;96.0
22676;DHT22;12521;43.310;21.876;2022-11-15T17:36:44;10.7;96.0
22676;DHT22;12521;43.310;21.876;2022-11-15T17:41:20;10.7;96.0
22676;DHT22;12521;43.310;21.876;2022-11-15T17:45:59;10.6;96.0
22676;DHT22;12521;43.310;21.876;2022-11-15T17:50:43;10.6;96.0
22676;DHT22;12521;43.310;21.876;2022-11-15T17:55:19;10.6;96.0
22676;DHT22;12521;43.310;21.876;2022-11-15T17:59:55;10.6;96.0
22676;DHT22;12521;43.310;21.876;2022-11-15T18:04:31;10.5;96.0
22676;DHT22;12521;43.310;21.876;2022-11-15T18:09:08;10.5;96.0
22676;DHT22;12521;43.310;21.876;2022-11-15T18:13:49;10.4;96.0
22676;DHT22;12521;43.310;21.876;2022-11-15T18:18:35;10.4;96.0
22676;DHT22;12521;43.310;21.876;2022-11-15T18:23:12;10.4;96.0
22676;DHT22;12521;43.310;21.876;2022-11-15T18:27:50;10.4;96.0
22676;DHT22;12521;43.310;21.876;2022-11-15T18:32:27;10.4;96.0
22676;DHT22;12521;43.310;21.876;2022-11-15T18:37:04;10.4;96.0
22676;DHT22;12521;43.310;21.876;2022-11-15T18:41:43;10.4;96.0
22676;DHT22;12521;43.310;21.876;2022-11-15T18:46:27;10.3;96.0
22676;DHT22;12521;43.310;21.876;2022-11-15T18:51:10;10.3;96.0
22676;DHT22;12521;43.310;21.876;2022-11-15T18:55:53;10.3;96.0
22676;DHT22;12521;43.310;21.876;2022-11-15T19:00:29;10.3;96.0
22676;DHT22;12521;43.310;21.876;2022-11-15T19:05:06;10.3;96.0
22676;DHT22;12521;43.310;21.876;2022-11-15T19:09:43;10.3;96.0
22676;DHT22;12521;43.310;21.876;2022-11-15T19:14:20;10.2;96.0
22676;DHT22;12521;43.310;21.876;2022-11-15T19:19:00;10.2;96.0
22676;DHT22;12521;43.310;21.876;2022-11-15T19:23:44;10.2;96.0
22676;DHT22;12521;43.310;21.876;2022-11-15T19:28:21;10.2;96.0
22676;DHT22;12521;43.310;21.876;2022-11-15T19:32:59;10.2;96.0
22676;DHT22;12521;43.310;21.876;2022-11-15T19:37:35;10.1;96.0
22676;DHT22;12521;43.310;21.876;2022-11-15T19:42:12;10.1;96.0
22676;DHT22;12521;43.310;21.876;2022-11-15T19:46:49;10.1;96.0
22676;DHT22;12521;43.310;21.876;2022-11-15T19:51:28;10.1;96.0
22676;DHT22;12521;43.310;21.876;2022-11-15T19:56:10;10.0;96.0
22676;DHT22;12521;43.310;21.876;2022-11-15T20:01:00;10.0;96.0
22676;DHT22;12521;43.310;21.876;2022-11-15T20:05:43;10.0;96.0
22676;DHT22;12521;43.310;21.876;2022-11-15T20:10:19;10.0;96.0
22676;DHT22;12521;43.310;21.876;2022-11-15T20:14:56;10.0;96.0
22676;DHT22;12521;43.310;21.876;2022-11-15T20:19:32;10.0;96.0
22676;DHT22;12521;43.310;21.876;2022-11-15T20:24:09;9.9;96.0
22676;DHT22;12521;43.310;21.876;2022-11-15T20:28:47;9.9;96.0
22676;DHT22;12521;43.310;21.876;2022-11-15T20:33:25;9.9;96.0
22676;DHT22;12521;43.310;21.876;2022-11-15T20:38:03;9.9;96.0
22676;DHT22;12521;43.310;21.876;2022-11-15T20:42:42;9.9;96.0
22676;DHT22;12521;43.310;21.876;2022-11-15T20:47:18;9.8;96.0
22676;DHT22;12521;43.310;21.876;2022-11-15T20:51:55;9.8;96.0
22676;DHT22;12521;43.310;21.876;2022-11-15T20:56:32;9.7;96.0
22676;DHT22;12521;43.310;21.876;2022-11-15T21:01:13;9.7;96.0
22676;DHT22;12521;43.310;21.876;2022-11-15T21:05:55;9.6;96.0
22676;DHT22;12521;43.310;21.876;2022-11-15T21:10:33;9.6;96.0
22676;DHT22;12521;43.310;21.876;2022-11-15T21:15:10;9.6;96.0
22676;DHT22;12521;43.310;21.876;2022-11-15T21:19:47;9.6;96.0
22676;DHT22;12521;43.310;21.876;2022-11-15T21:24:24;9.6;96.0
22676;DHT22;12521;43.310;21.876;2022-11-15T21:29:01;9.6;96.0
22676;DHT22;12521;43.310;21.876;2022-11-15T21:33:39;9.6;96.0
22676;DHT22;12521;43.310;21.876;2022-11-15T21:38:16;9.6;96.0
22676;DHT22;12521;43.310;21.876;2022-11-15T21:42:52;9.6;96.0
22676;DHT22;12521;43.310;21.876;2022-11-15T21:47:29;9.6;96.0
22676;DHT22;12521;43.310;21.876;2022-11-15T21:52:05;9.6;96.0
22676;DHT22;12521;43.310;21.876;2022-11-15T21:56:42;9.6;96.0
22676;DHT22;12521;43.310;21.876;2022-11-15T22:01:19;9.6;96.0
22676;DHT22;12521;43.310;21.876;2022-11-15T22:05:59;9.6;96.0
22676;DHT22;12521;43.310;21.876;2022-11-15T22:10:37;9.6;96.0
22676;DHT22;12521;43.310;21.876;2022-11-15T22:15:14;9.6;96.0
22676;DHT22;12521;43.310;21.876;2022-11-15T22:19:51;9.6;96.0
22676;DHT22;12521;43.310;21.876;2022-11-15T22:24:28;9.6;96.0
22676;DHT22;12521;43.310;21.876;2022-11-15T22:29:06;9.6;96.0
22676;DHT22;12521;43.310;21.876;2022-11-15T22:33:43;9.6;96.0
22676;DHT22;12521;43.310;21.876;2022-11-15T22:38:21;9.6;96.0
22676;DHT22;12521;43.310;21.876;2022-11-15T22:43:03;9.6;96.0
22676;DHT22;12521;43.310;21.876;2022-11-15T22:47:41;9.6;96.0
22676;DHT22;12521;43.310;21.876;2022-11-15T22:52:18;9.6;96.0
22676;DHT22;12521;43.310;21.876;2022-11-15T22:56:54;9.6;96.0
22676;DHT22;12521;43.310;21.876;2022-11-15T23:01:31;9.6;96.0
22676;DHT22;12521;43.310;21.876;2022-11-15T23:15:22;9.4;96.0
22676;DHT22;12521;43.310;21.876;2022-11-15T23:19:58;9.4;96.0
22676;DHT22;12521;43.310;21.876;2022-11-15T23:24:35;9.4;96.0
22676;DHT22;12521;43.310;21.876;2022-11-15T23:29:22;9.4;96.0
22676;DHT22;12521;43.310;21.876;2022-11-15T23:34:01;9.4;96.0
22676;DHT22;12521;43.310;21.876;2022-11-15T23:38:38;9.4;96.0
22676;DHT22;12521;43.310;21.876;2022-11-15T23:43:15;9.4;96.0
22676;DHT22;12521;43.310;21.876;2022-11-15T23:47:51;9.5;96.0
22676;DHT22;12521;43.310;21.876;2022-11-15T23:52:28;9.5;96.0
22676;DHT22;12521;43.310;21.876;2022-11-15T23:57:05;9.4;96.0
